Time;durP1;ratioP1;P1;durP2;ratioP2;P2;SDS_P1;SDS_P2;PMS_P1;PMS_P2;Temp;Humidity;BMP_temperature;BMP_pressure;BME280_temperature;BME280_humidity;BME280_pressure;Samples;Min_cycle;Max_cycle;Signal;HPM_P1;HPM_P2
2021/11/25 00:00:33;;;;;;;5.13;4.63;;;;;;;17.36;55.55;101491.38;5058586;28;20035;-75
2021/11/25 00:02:59;;;;;;;6.28;4.80;;;;;;;17.34;55.46;101488.75;5075317;28;20020;-76
2021/11/25 00:05:25;;;;;;;5.20;4.70;;;;;;;17.33;55.63;101474.00;5058599;28;20115;-76
2021/11/25 00:07:50;;;;;;;6.20;5.07;;;;;;;17.33;55.38;101475.72;5075467;28;20032;-74
2021/11/25 00:10:16;;;;;;;5.70;4.68;;;;;;;17.32;55.74;101474.00;5058882;28;20023;-75
2021/11/25 00:12:42;;;;;;;5.40;4.70;;;;;;;17.33;55.40;101465.31;5093698;28;20370;-74
2021/11/25 00:15:09;;;;;;;4.95;4.43;;;;;;;17.33;55.61;101460.13;5075336;28;20477;-76
2021/11/25 00:17:35;;;;;;;6.30;4.97;;;;;;;17.33;55.49;101460.97;5075157;28;20067;-74
2021/11/25 00:20:01;;;;;;;4.80;4.40;;;;;;;17.31;55.67;101460.16;5059571;28;20059;-74
2021/11/25 00:22:26;;;;;;;5.05;4.50;;;;;;;17.32;55.57;101456.66;5058672;28;20031;-77
2021/11/25 00:24:52;;;;;;;5.28;4.78;;;;;;;17.32;55.25;101455.81;5063244;28;20024;-75
2021/11/25 00:27:18;;;;;;;7.38;5.03;;;;;;;17.32;55.29;101448.00;5058460;28;20478;-74
2021/11/25 00:29:43;;;;;;;5.30;4.80;;;;;;;17.32;55.56;101445.41;5075349;28;20028;-74
2021/11/25 00:32:09;;;;;;;5.65;4.85;;;;;;;17.30;55.42;101442.78;5093029;28;20024;-74
2021/11/25 00:34:34;;;;;;;6.15;5.45;;;;;;;17.32;55.20;101438.44;5075031;28;20055;-74
2021/11/25 00:37:00;;;;;;;5.78;5.15;;;;;;;17.31;55.26;101446.25;5075972;28;20039;-75
2021/11/25 00:39:25;;;;;;;6.75;4.97;;;;;;;17.31;55.34;101438.44;5061879;28;20131;-74
2021/11/25 00:41:50;;;;;;;7.28;4.82;;;;;;;17.31;55.26;101436.72;5062122;28;20028;-74
2021/11/25 00:44:16;;;;;;;5.63;4.72;;;;;;;17.30;55.35;101437.59;5078700;28;20024;-75
2021/11/25 00:46:41;;;;;;;5.60;4.88;;;;;;;17.31;55.29;101433.25;5062016;28;20473;-76
2021/11/25 00:49:07;;;;;;;5.13;4.63;;;;;;;17.30;55.36;101429.78;5061983;28;20509;-77
2021/11/25 00:51:33;;;;;;;6.60;5.45;;;;;;;17.30;55.18;101436.72;5078669;28;20047;-76
2021/11/25 00:53:59;;;;;;;6.60;5.28;;;;;;;17.30;55.08;101427.19;5061907;28;20130;-75
2021/11/25 00:56:24;;;;;;;6.10;5.35;;;;;;;17.29;55.17;101420.25;5078594;28;20469;-76
2021/11/25 00:58:50;;;;;;;5.65;5.00;;;;;;;17.28;55.30;101432.38;5045071;28;20108;-74
2021/11/25 01:01:15;;;;;;;5.97;5.38;;;;;;;17.30;55.34;101424.56;5061784;28;20445;-75
2021/11/25 01:03:41;;;;;;;5.78;5.15;;;;;;;17.28;55.35;101434.97;5096443;28;20487;-76
2021/11/25 01:06:06;;;;;;;7.13;5.15;;;;;;;17.29;55.28;101435.84;5061672;28;20548;-75
2021/11/25 01:08:32;;;;;;;6.63;5.78;;;;;;;17.29;55.11;101425.47;5061646;28;20027;-75
2021/11/25 01:10:58;;;;;;;5.93;5.07;;;;;;;17.28;55.22;101428.91;5078380;28;20028;-74
2021/11/25 01:13:24;;;;;;;6.25;5.65;;;;;;;17.28;54.95;101421.09;5061535;28;20119;-75
2021/11/25 01:15:49;;;;;;;6.03;5.28;;;;;;;17.28;55.18;101418.50;5061413;28;20139;-75
2021/11/25 01:18:18;;;;;;;5.85;5.25;;;;;;;17.27;55.33;101420.25;5061211;28;20537;-74
2021/11/25 01:20:45;;;;;;;6.30;5.55;;;;;;;17.28;55.18;101421.09;5077990;28;20031;-75
2021/11/25 01:23:15;;;;;;;6.72;5.47;;;;;;;17.27;55.06;101428.03;5078051;28;20024;-74
2021/11/25 01:25:41;;;;;;;6.15;5.50;;;;;;;17.26;54.86;101418.50;5096219;28;20022;-75
2021/11/25 01:28:12;;;;;;;5.90;5.30;;;;;;;17.26;55.00;101415.03;5061694;28;20035;-75
2021/11/25 01:30:39;;;;;;;6.10;5.50;;;;;;;17.26;54.93;101428.03;5077898;28;20034;-76
2021/11/25 01:33:05;;;;;;;7.15;6.03;;;;;;;17.27;54.96;101437.59;5078107;28;20028;-75
2021/11/25 01:35:30;;;;;;;6.32;5.32;;;;;;;17.26;54.96;101428.91;5077754;28;20020;-76
2021/11/25 01:37:56;;;;;;;6.32;5.47;;;;;;;17.27;55.19;101432.38;5061092;28;20493;-76
2021/11/25 01:40:22;;;;;;;8.65;5.60;;;;;;;17.26;54.96;101428.03;5060942;28;20059;-75
2021/11/25 01:42:48;;;;;;;7.25;5.97;;;;;;;17.26;55.13;101430.63;5077804;28;20032;-76
2021/11/25 01:45:14;;;;;;;7.15;5.63;;;;;;;17.25;55.12;101421.97;5077710;28;20013;-76
2021/11/25 01:47:44;;;;;;;6.20;5.60;;;;;;;17.25;55.00;101421.13;5077047;28;20020;-77
2021/11/25 01:50:15;;;;;;;6.60;5.90;;;;;;;17.26;55.14;101421.09;5077472;28;20016;-74
2021/11/25 01:52:41;;;;;;;6.90;6.20;;;;;;;17.25;54.84;101419.38;5078287;28;20427;-75
2021/11/25 01:55:07;;;;;;;7.13;6.10;;;;;;;17.25;55.06;101421.13;5060792;28;20023;-75
2021/11/25 01:57:33;;;;;;;6.78;5.90;;;;;;;17.25;54.96;101416.78;5060847;28;20387;-76
2021/11/25 01:59:58;;;;;;;8.10;6.45;;;;;;;17.25;54.99;101410.72;5060406;28;20131;-76
2021/11/25 02:02:23;;;;;;;6.53;5.55;;;;;;;17.24;54.88;101403.75;5077187;28;20062;-75
2021/11/25 02:04:49;;;;;;;7.10;6.30;;;;;;;17.25;54.82;101405.50;5060586;28;20197;-76
2021/11/25 02:07:15;;;;;;;6.20;5.60;;;;;;;17.24;54.94;101396.81;5060421;28;20052;-76
2021/11/25 02:09:40;;;;;;;6.90;6.15;;;;;;;17.24;54.76;101393.34;5043843;28;20024;-75
2021/11/25 02:12:06;;;;;;;6.75;6.05;;;;;;;17.23;54.70;101392.50;5076964;28;20054;-75
2021/11/25 02:14:31;;;;;;;6.22;5.57;;;;;;;17.24;55.10;101395.94;5060088;28;20036;-76
2021/11/25 02:16:57;;;;;;;7.20;6.50;;;;;;;17.23;54.79;101397.69;5076936;28;20028;-76
2021/11/25 02:19:23;;;;;;;7.53;6.30;;;;;;;17.24;54.94;101395.94;5059839;28;20482;-74
2021/11/25 02:21:49;;;;;;;7.07;6.13;;;;;;;17.22;54.98;101382.97;5076759;28;20446;-77
2021/11/25 02:24:14;;;;;;;7.57;6.57;;;;;;;17.22;55.03;101382.97;5076774;28;20024;-76
2021/11/25 02:26:40;;;;;;;7.10;6.43;;;;;;;17.22;54.90;101385.56;5060045;28;20036;-75
2021/11/25 03:01:53;;;;;;;7.25;6.32;;;;;;;17.19;55.05;101340.47;4903772;29;20059;-82
2021/11/25 03:04:42;;;;;;;7.68;6.88;;;;;;;17.18;55.00;101330.91;4897430;29;20045;-82
2021/11/25 03:07:51;;;;;;;7.00;6.30;;;;;;;17.20;55.01;101327.47;4903266;29;20085;-82
2021/11/25 03:11:30;;;;;;;7.45;6.10;;;;;;;17.18;55.17;101334.41;4884120;29;20017;-81
2021/11/25 03:18:16;;;;;;;7.32;6.53;;;;;;;17.18;55.06;101326.63;4846987;29;20037;-83
2021/11/25 03:24:43;;;;;;;8.45;7.07;;;;;;;17.18;54.88;101325.72;4940501;29;20034;-83
2021/11/25 03:27:37;;;;;;;7.85;6.57;;;;;;;17.15;54.89;101323.13;4940055;29;20043;-82
2021/11/25 04:00:53;;;;;;;7.68;6.88;;;;;;;17.13;55.02;101297.13;4949009;28;20075;-82
2021/11/25 04:03:57;;;;;;;7.70;6.90;;;;;;;17.13;54.79;101293.66;4941413;29;20036;-82
2021/11/25 04:07:02;;;;;;;8.82;6.70;;;;;;;17.13;54.91;101286.72;4940946;29;20039;-82
2021/11/25 04:20:37;;;;;;;7.90;7.10;;;;;;;17.13;54.96;101289.31;4925113;29;20052;-82
2021/11/25 04:36:56;;;;;;;8.43;7.20;;;;;;;17.11;55.15;101272.84;4905977;29;20032;-81
2021/11/25 04:43:55;;;;;;;8.35;7.22;;;;;;;17.10;55.14;101272.88;4906017;29;20039;-82
2021/11/25 04:47:33;;;;;;;8.05;7.20;;;;;;;17.10;55.08;101265.94;4886555;29;20048;-81
2021/11/25 05:12:08;;;;;;;9.80;7.95;;;;;;;17.08;55.01;101243.41;5021225;28;20041;-85
2021/11/25 05:25:31;;;;;;;10.50;8.35;;;;;;;17.06;55.07;101249.44;4924488;29;20048;-82
2021/11/25 05:28:38;;;;;;;9.20;7.95;;;;;;;17.07;55.17;101250.31;4880613;29;20034;-83
2021/11/25 05:32:05;;;;;;;8.98;7.78;;;;;;;17.05;55.13;101245.13;4812967;29;20027;-85
2021/11/25 05:42:19;;;;;;;8.60;7.45;;;;;;;17.05;55.11;101244.28;4877762;29;20059;-83
2021/11/25 06:05:40;;;;;;;8.93;7.90;;;;;;;17.04;54.72;101226.94;5648539;23;20066;-83
2021/11/25 06:08:06;;;;;;;8.70;7.80;;;;;;;17.03;55.15;101225.22;5014958;28;20015;-82
2021/11/25 06:13:53;;;;;;;7.40;6.70;;;;;;;17.04;55.35;101216.53;5020497;28;20065;-85
2021/11/25 06:31:06;;;;;;;10.93;8.05;;;;;;;17.06;55.92;101214.78;5814087;23;20074;-83
2021/11/25 06:45:02;;;;;;;15.13;8.88;;;;;;;17.41;56.36;101211.25;3444313;23;20113;-82
2021/11/25 07:09:09;;;;;;;12.02;7.05;;;;;;;17.46;56.71;101199.97;5038006;23;20047;-89
2021/11/25 08:51:31;;;;;;;5.35;3.55;;;;;;;17.72;56.25;101232.81;4957522;28;20090;-86
2021/11/25 09:20:02;;;;;;;4.85;2.92;;;;;;;17.86;55.70;101248.44;5201775;23;20092;-85
2021/11/25 09:25:10;;;;;;;3.93;3.07;;;;;;;17.92;55.51;101244.91;5123490;23;20058;-86
2021/11/25 09:27:36;;;;;;;4.75;2.97;;;;;;;17.94;55.60;101236.22;5001451;28;20357;-87
2021/11/25 09:30:23;;;;;;;6.32;3.00;;;;;;;17.96;55.42;101247.50;4985237;28;20010;-87
2021/11/25 09:33:07;;;;;;;5.50;3.05;;;;;;;17.99;55.22;101254.47;5016560;28;20039;-86
2021/11/25 09:35:42;;;;;;;5.47;2.80;;;;;;;18.00;55.25;101245.75;5014760;28;20139;-86
2021/11/25 09:38:09;;;;;;;4.55;3.00;;;;;;;17.99;55.46;101255.31;4998177;28;20026;-89
2021/11/25 09:40:38;;;;;;;4.30;2.75;;;;;;;17.98;55.41;101250.09;4999534;28;20037;-86
2021/11/25 09:43:08;;;;;;;4.57;3.00;;;;;;;17.97;55.66;101248.38;4966103;28;20040;-86
2021/11/25 09:45:36;;;;;;;3.55;2.42;;;;;;;17.96;55.23;101251.84;4997503;28;20022;-88
2021/11/25 09:48:08;;;;;;;3.92;2.90;;;;;;;17.92;55.49;101244.91;5013067;28;20034;-88
2021/11/25 10:00:46;;;;;;;3.83;2.42;;;;;;;17.85;55.48;101272.72;5018819;28;20060;-87
2021/11/25 10:18:03;;;;;;;3.80;2.58;;;;;;;17.75;55.69;101284.88;5277681;23;20408;-87
2021/11/25 10:20:42;;;;;;;3.60;2.20;;;;;;;17.73;55.37;101281.41;5013913;28;20034;-87
2021/11/25 10:33:12;;;;;;;3.60;2.30;;;;;;;17.80;55.10;101287.47;4995087;28;20042;-87
2021/11/25 10:45:22;;;;;;;3.35;2.17;;;;;;;17.79;54.61;101290.94;5081048;23;20081;-88
2021/11/25 10:51:36;;;;;;;4.00;2.20;;;;;;;17.80;54.66;101293.53;4994065;28;20049;-84
2021/11/25 10:54:28;;;;;;;3.47;2.15;;;;;;;17.81;54.59;101292.69;4995662;28;20053;-85
2021/11/25 10:56:57;;;;;;;3.75;2.10;;;;;;;17.78;54.65;101292.69;4996762;28;20094;-86
2021/11/25 11:06:01;;;;;;;4.13;2.00;;;;;;;17.79;54.11;101286.63;5096123;23;20054;-85
2021/11/25 11:12:42;;;;;;;4.13;1.90;;;;;;;17.77;54.26;101284.84;5016397;28;20049;-86
2021/11/25 11:22:10;;;;;;;2.78;1.60;;;;;;;17.78;54.16;101284.88;5016427;28;20129;-85
2021/11/25 11:27:58;;;;;;;3.22;1.95;;;;;;;17.76;54.34;101280.53;5016790;28;20037;-85
2021/11/25 11:37:05;;;;;;;3.17;1.80;;;;;;;17.80;53.89;101279.66;5025815;23;20050;-86
2021/11/25 11:39:32;;;;;;;3.30;1.55;;;;;;;17.80;53.89;101279.66;5010661;28;20050;-85
2021/11/25 11:42:07;;;;;;;3.05;1.70;;;;;;;17.80;54.16;101277.91;5012143;28;20467;-85
2021/11/25 11:57:39;;;;;;;2.97;1.65;;;;;;;17.78;53.77;101278.78;5015193;28;20135;-85
2021/11/25 12:00:49;;;;;;;1.90;1.30;;;;;;;17.76;53.95;101285.75;5011374;28;20039;-86
2021/11/25 12:10:06;;;;;;;2.25;1.27;;;;;;;17.74;53.65;101262.31;5014418;28;20021;-87
2021/11/25 12:12:37;;;;;;;3.20;1.83;;;;;;;17.75;53.77;101261.47;4980246;28;20026;-87
2021/11/25 12:15:05;;;;;;;3.63;1.80;;;;;;;17.77;53.68;101256.22;4997430;28;20034;-85
2021/11/25 12:17:49;;;;;;;2.08;1.35;;;;;;;17.75;53.55;101245.84;4982252;28;20035;-84
2021/11/25 12:21:02;;;;;;;2.58;1.50;;;;;;;17.75;53.79;101244.97;4995611;28;20033;-86
2021/11/25 12:23:42;;;;;;;3.88;1.40;;;;;;;17.72;53.73;101238.03;4966022;28;20042;-82
2021/11/25 12:26:08;;;;;;;4.10;1.63;;;;;;;17.71;53.51;101225.91;5005655;28;20037;-84
2021/11/25 12:28:59;;;;;;;4.40;1.70;;;;;;;17.79;53.79;101223.25;5002468;28;20034;-83
2021/11/25 12:31:41;;;;;;;3.15;2.05;;;;;;;17.84;53.54;101219.78;4999740;28;20030;-81
2021/11/25 12:34:32;;;;;;;4.55;2.30;;;;;;;17.87;53.57;101224.97;4969285;28;20087;-83
2021/11/25 12:36:57;;;;;;;5.30;2.42;;;;;;;17.85;53.54;101218.06;4984754;28;20089;-84
2021/11/25 12:39:43;;;;;;;5.63;2.90;;;;;;;17.82;53.89;101229.34;4986870;28;20038;-82
2021/11/25 12:42:08;;;;;;;5.25;2.92;;;;;;;17.81;53.79;101224.09;4986911;28;20039;-84
2021/11/25 12:44:43;;;;;;;3.97;2.50;;;;;;;17.78;53.79;101211.13;4959794;28;20033;-85
2021/11/25 12:47:30;;;;;;;4.45;2.65;;;;;;;17.78;53.93;101211.97;4975331;28;20027;-82
2021/11/25 12:50:19;;;;;;;3.88;2.60;;;;;;;17.76;53.83;101213.72;4977003;28;20042;-83
2021/11/25 12:52:45;;;;;;;4.18;2.80;;;;;;;17.79;54.03;101212.84;4963106;28;20031;-83
2021/11/25 12:58:53;;;;;;;4.20;2.30;;;;;;;17.79;53.99;101215.44;4995836;28;20114;-85
2021/11/25 13:01:38;;;;;;;4.82;2.55;;;;;;;17.75;53.92;101206.78;4995829;28;20023;-84
2021/11/25 13:04:37;;;;;;;6.00;2.58;;;;;;;17.76;54.05;101202.44;4993177;28;20027;-87
2021/11/25 13:13:50;;;;;;;4.47;2.50;;;;;;;17.76;53.98;101194.63;4997085;28;20107;-85
2021/11/25 13:16:53;;;;;;;4.07;2.13;;;;;;;17.75;53.88;101201.59;4980529;28;20026;-85
2021/11/25 13:19:23;;;;;;;3.63;2.05;;;;;;;17.73;53.93;101187.72;4987041;28;20042;-85
2021/11/25 13:25:50;;;;;;;5.97;2.30;;;;;;;17.77;53.74;101194.63;4994404;28;20105;-82
2021/11/25 13:28:31;;;;;;;4.65;2.40;;;;;;;17.75;53.86;101192.91;4970751;28;20061;-83
2021/11/25 13:31:11;;;;;;;4.93;2.28;;;;;;;17.76;53.89;101192.03;4970754;28;20117;-84
2021/11/25 13:34:06;;;;;;;6.38;2.35;;;;;;;17.75;53.63;101193.78;4988335;28;20074;-82
2021/11/25 13:36:44;;;;;;;4.13;2.05;;;;;;;17.76;54.01;101195.50;4985705;28;20062;-83
2021/11/25 13:39:18;;;;;;;3.88;2.05;;;;;;;17.75;53.84;101187.72;4984740;28;20031;-83
2021/11/25 13:42:02;;;;;;;3.28;1.90;;;;;;;17.73;53.93;101190.31;4965750;28;20417;-83
2021/11/25 13:44:37;;;;;;;5.63;2.10;;;;;;;17.75;53.68;101182.50;4982997;28;20113;-85
2021/11/25 13:47:07;;;;;;;3.50;1.98;;;;;;;17.73;54.11;101185.13;4969088;28;20098;-83
2021/11/25 13:49:44;;;;;;;4.78;2.40;;;;;;;17.73;53.79;101179.91;4984549;28;20108;-83
2021/11/25 13:52:13;;;;;;;4.20;1.95;;;;;;;17.72;53.77;101175.56;4968348;28;20033;-83
2021/11/25 13:54:42;;;;;;;3.88;1.98;;;;;;;17.76;54.01;101185.09;4985040;28;20030;-83
2021/11/25 13:57:09;;;;;;;4.07;2.13;;;;;;;17.74;54.16;101175.56;4957431;28;20050;-82
2021/11/25 13:59:37;;;;;;;3.75;1.95;;;;;;;17.76;53.67;101171.22;4968734;28;20042;-83
2021/11/25 14:02:11;;;;;;;3.92;2.08;;;;;;;17.73;53.67;101171.25;4984828;28;20535;-86
2021/11/25 14:04:38;;;;;;;3.35;1.60;;;;;;;17.72;54.11;101172.94;4988224;28;20043;-86
2021/11/25 14:10:26;;;;;;;4.47;2.00;;;;;;;17.72;53.75;101153.88;5233527;23;20043;-86
2021/11/25 14:20:38;;;;;;;2.65;1.50;;;;;;;17.78;53.58;101164.25;5017685;28;20049;-87
2021/11/25 14:33:05;;;;;;;3.88;1.63;;;;;;;17.79;53.24;101166.88;4993337;28;20049;-85
2021/11/25 14:39:38;;;;;;;3.22;1.67;;;;;;;17.70;53.66;101169.50;4935898;29;20050;-87
2021/11/25 14:42:12;;;;;;;3.63;1.70;;;;;;;17.68;53.59;101168.63;4935207;29;20356;-86
2021/11/25 14:48:30;;;;;;;3.55;1.67;;;;;;;17.66;53.59;101165.19;4935415;29;20107;-87
2021/11/25 14:58:22;;;;;;;3.15;1.55;;;;;;;17.66;53.24;101167.81;4977265;29;20147;-86
2021/11/25 15:00:49;;;;;;;4.13;1.65;;;;;;;17.63;53.46;101173.84;4973893;29;20482;-84
2021/11/25 15:03:15;;;;;;;3.55;1.58;;;;;;;17.63;53.13;101173.84;4965209;29;20093;-83
2021/11/25 15:05:47;;;;;;;3.42;1.65;;;;;;;17.61;53.28;101167.78;4971996;28;20105;-83
2021/11/25 15:08:16;;;;;;;2.78;1.50;;;;;;;17.59;53.27;101169.53;4972752;28;20039;-83
2021/11/25 15:10:45;;;;;;;3.60;1.42;;;;;;;17.59;53.32;101174.75;5006212;28;20037;-83
2021/11/25 15:13:14;;;;;;;3.67;1.77;;;;;;;17.59;53.41;101171.28;4991292;28;20034;-82
2021/11/25 15:15:42;;;;;;;4.55;1.75;;;;;;;17.59;53.29;101166.06;5011543;28;20073;-84
2021/11/25 15:24:36;;;;;;;4.68;1.75;;;;;;;17.58;53.38;101167.81;5137078;23;20054;-83
2021/11/25 15:27:01;;;;;;;7.47;2.72;;;;;;;17.72;53.62;101174.69;4991788;28;20030;-84
2021/11/25 15:29:30;;;;;;;9.80;3.67;;;;;;;17.66;53.47;101173.00;4942035;28;20062;-84
2021/11/25 15:34:46;;;;;;;12.95;3.83;;;;;;;17.65;53.33;101164.31;4964726;28;20175;-84
2021/11/25 15:37:15;;;;;;;12.38;3.60;;;;;;;17.69;54.00;101168.63;4988907;28;20039;-86
2021/11/25 15:39:41;;;;;;;11.55;4.30;;;;;;;17.67;54.13;101172.97;4967344;28;20050;-83
2021/11/25 15:42:06;;;;;;;11.93;4.18;;;;;;;17.66;54.19;101167.81;4955891;28;20039;-81
2021/11/25 15:44:33;;;;;;;8.27;3.60;;;;;;;17.69;53.98;101176.44;4964755;28;20034;-85
2021/11/25 15:47:02;;;;;;;7.90;3.45;;;;;;;17.71;53.79;101172.97;4977110;28;20072;-81
2021/11/25 15:49:28;;;;;;;7.28;3.20;;;;;;;17.70;54.08;101174.69;4974666;28;20076;-79
2021/11/25 15:51:53;;;;;;;8.20;3.17;;;;;;;17.70;53.63;101166.88;4958508;28;20035;-80
2021/11/25 15:54:18;;;;;;;6.93;2.90;;;;;;;17.71;53.62;101173.84;4942422;28;20031;-80
2021/11/25 15:56:44;;;;;;;11.70;3.25;;;;;;;17.77;53.58;101167.72;4974529;28;20037;-80
2021/11/25 15:59:10;;;;;;;9.43;3.00;;;;;;;17.75;53.62;101164.28;4942232;28;20035;-80
2021/11/25 16:01:35;;;;;;;8.10;2.75;;;;;;;17.73;53.78;101161.69;4942559;28;20496;-80
2021/11/25 16:04:01;;;;;;;7.00;2.92;;;;;;;17.74;53.47;101162.53;4942638;28;20031;-80
2021/11/25 16:06:26;;;;;;;6.30;2.63;;;;;;;17.78;53.42;101170.31;4958423;28;20054;-80
2021/11/25 16:08:52;;;;;;;8.43;2.67;;;;;;;17.75;53.40;101162.53;4962681;28;20027;-80
2021/11/25 16:11:17;;;;;;;6.97;2.45;;;;;;;17.77;53.60;101159.91;4946889;28;20031;-79
2021/11/25 16:13:46;;;;;;;5.53;2.53;;;;;;;17.77;53.62;101160.81;4945681;28;20042;-79
2021/11/25 16:16:11;;;;;;;7.28;2.55;;;;;;;17.78;53.61;101159.91;4962250;28;20074;-79
2021/11/25 16:18:38;;;;;;;6.15;2.75;;;;;;;17.76;53.71;101159.06;4945617;28;20031;-79
2021/11/25 16:21:03;;;;;;;5.65;2.20;;;;;;;17.77;53.69;101159.91;4945472;28;20077;-79
2021/11/25 16:23:29;;;;;;;6.22;2.63;;;;;;;17.77;53.35;101158.19;4947034;28;20385;-82
2021/11/25 16:25:54;;;;;;;7.63;2.20;;;;;;;17.78;53.58;101159.06;4928935;29;20054;-80
2021/11/25 16:28:20;;;;;;;4.13;1.90;;;;;;;17.75;53.53;101154.72;4913019;29;20055;-80
2021/11/25 16:30:48;;;;;;;4.72;2.00;;;;;;;17.77;53.35;101152.09;4914014;29;20117;-82
2021/11/25 16:33:15;;;;;;;5.45;2.55;;;;;;;17.79;53.68;101153.84;4946137;29;20028;-80
2021/11/25 16:35:41;;;;;;;6.72;2.42;;;;;;;17.76;53.51;101146.03;4945984;29;20023;-80
2021/11/25 16:38:10;;;;;;;5.40;2.30;;;;;;;17.80;53.57;101149.50;4915038;29;20190;-80
2021/11/25 16:40:36;;;;;;;5.50;2.03;;;;;;;17.81;53.54;101146.91;4944623;29;20019;-79
2021/11/25 16:43:02;;;;;;;4.68;1.90;;;;;;;17.80;53.44;101155.56;4942821;29;20027;-80
2021/11/25 16:45:27;;;;;;;4.78;1.80;;;;;;;17.79;53.59;101147.75;4942570;29;20038;-81
2021/11/25 16:50:37;;;;;;;;;;;;;;;17.83;53.32;101141.69;4959863;29;20042;-79
2021/11/25 16:53:03;;;;;;;4.28;2.00;;;;;;;17.81;53.64;101144.28;4925558;29;19914;-79
2021/11/25 16:55:29;;;;;;;3.80;1.98;;;;;;;17.84;53.31;101146.03;4941730;29;20070;-79
2021/11/25 16:57:55;;;;;;;4.03;1.88;;;;;;;17.83;53.49;101147.78;4910502;29;20398;-79
2021/11/25 17:00:21;;;;;;;4.90;1.73;;;;;;;17.85;53.47;101153.81;4910429;29;20503;-78
2021/11/25 17:02:46;;;;;;;3.85;1.70;;;;;;;17.85;53.52;101155.56;4941745;29;20114;-80
2021/11/25 17:05:12;;;;;;;3.80;1.65;;;;;;;17.85;53.41;101146.00;4925739;29;20038;-79
2021/11/25 17:07:37;;;;;;;3.30;1.90;;;;;;;17.86;53.46;101146.91;4941440;29;20050;-79
2021/11/25 17:10:04;;;;;;;5.07;2.03;;;;;;;17.84;53.35;101146.91;4909859;29;20023;-79
2021/11/25 17:18:19;;;;;;;4.93;2.03;;;;;;;17.85;53.39;101146.00;5933000;23;21325;-81
2021/11/25 17:29:41;;;;;;;3.85;1.77;;;;;;;17.85;53.48;101139.94;5855296;23;20063;-79
2021/11/25 17:42:27;;;;;;;3.65;1.60;;;;;;;17.89;53.58;101141.66;5934988;23;20010;-80
2021/11/25 17:57:12;;;;;;;5.93;1.77;;;;;;;17.94;53.86;101124.25;5762426;23;20272;-80
2021/11/25 18:02:16;;;;;;;9.57;1.65;;;;;;;17.94;53.90;101137.28;6020733;23;20018;-79
2021/11/25 22:47:00;;;;;;;1.35;0.80;;;;;;;17.34;55.24;100885.25;5223236;23;20263;-81
2021/11/25 22:49:51;;;;;;;1.77;0.82;;;;;;;17.33;54.99;100878.31;4979631;28;20046;-84
